Aviation Digital Data Service (ADDS)

Output produced by TAFs form (0212 UTC 21 April 2018)
found at http://aviationweather.gov/adds/tafs/
 
METAR text: RJNT 210200Z 31005KT 270V360 CAVOK 27/04 Q1018
Conditions at: RJNT (TOYAMA AIRPORT , JP) observed 0200 UTC 21 April 2018
Temperature: 27.0°C (81°F)
Dewpoint: 4.0°C (39°F) [RH = 23%]
Pressure (altimeter): 30.06 inches Hg (1018.0 mb)
Winds: from the NW (310 degrees) at 6 MPH (5 knots; 2.6 m/s)
Visibility: 6 or more miles (10+ km)
Ceiling: ceiling and visibility are OK
Clouds: unknown
Weather: no significant weather observed at this time

Forecast for: RJNT (TOYAMA AIRPORT , JP)
Text: TAF RJNT 202305Z 2100/2206 18006KT 9999 FEW030
Forecast period: 0000 to 0200 UTC 21 April 2018
Forecast type: FROM: standard forecast or significant change
Winds: from the S (180 degrees) at 7 MPH (6 knots; 3.1 m/s)
Visibility: 6 or more miles (10+ km)
Clouds: few clouds at 3000 feet AGL
Weather: no significant weather forecast for this period
Forecast for: RJNT (TOYAMA AIRPORT , JP)
Text: TAF RJNT 202305Z 2100/2206 18006KT 9999 FEW030
Forecast period: 0000 to 0200 UTC 21 April 2018
Forecast type: FROM: standard forecast or significant change
Winds: from the S (180 degrees) at 7 MPH (6 knots; 3.1 m/s)
Visibility: 6 or more miles (10+ km)
Clouds: few clouds at 3000 feet AGL
Weather: no significant weather forecast for this period
Forecast for: RJNT (TOYAMA AIRPORT , JP)
Text: TAF RJNT 202305Z 2100/2206 18006KT 9999 FEW030
Forecast period: 0200 to 0800 UTC 21 April 2018
Forecast type: BECOMING: Conditions expected to become as follows by 0400 UTC 21 April 2018
Winds: from the WNW (290 degrees) at 12 MPH (10 knots; 5.2 m/s)
Visibility: 6 or more miles (10+ km)
Clouds: few clouds at 3000 feet AGL
Weather: no significant weather forecast for this period
Forecast for: RJNT (TOYAMA AIRPORT , JP)
Text: TAF RJNT 202305Z 2100/2206 18006KT 9999 FEW030
Forecast period: 0200 to 0800 UTC 21 April 2018
Forecast type: BECOMING: Conditions expected to become as follows by 0400 UTC 21 April 2018
Winds: from the WNW (290 degrees) at 12 MPH (10 knots; 5.2 m/s)
Visibility: 6 or more miles (10+ km)
Clouds: few clouds at 3000 feet AGL
Weather: no significant weather forecast for this period
Forecast for: RJNT (TOYAMA AIRPORT , JP)
Text: TAF RJNT 202305Z 2100/2206 18006KT 9999 FEW030
Forecast period: 0800 UTC 21 April 2018 to 0000 UTC 22 April 2018
Forecast type: BECOMING: Conditions expected to become as follows by 1000 UTC 21 April 2018
Winds: from the SSW (200 degrees) at 7 MPH (6 knots; 3.1 m/s)
Visibility: 6 or more miles (10+ km)
Clouds: few clouds at 3000 feet AGL
Weather: no significant weather forecast for this period
Forecast for: RJNT (TOYAMA AIRPORT , JP)
Text: TAF RJNT 202305Z 2100/2206 18006KT 9999 FEW030
Forecast period: 0800 UTC 21 April 2018 to 0000 UTC 22 April 2018
Forecast type: BECOMING: Conditions expected to become as follows by 1000 UTC 21 April 2018
Winds: from the SSW (200 degrees) at 7 MPH (6 knots; 3.1 m/s)
Visibility: 6 or more miles (10+ km)
Clouds: few clouds at 3000 feet AGL
Weather: no significant weather forecast for this period
Forecast for: RJNT (TOYAMA AIRPORT , JP)
Text: TAF RJNT 202305Z 2100/2206 18006KT 9999 FEW030
Forecast period: 0000 to 0600 UTC 22 April 2018
Forecast type: BECOMING: Conditions expected to become as follows by 0300 UTC 22 April 2018
Winds: from the WNW (300 degrees) at 9 MPH (8 knots; 4.2 m/s)
Visibility: 6 or more miles (10+ km)
Clouds: few clouds at 3000 feet AGL
Weather: no significant weather forecast for this period
Forecast for: RJNT (TOYAMA AIRPORT , JP)
Text: TAF RJNT 202305Z 2100/2206 18006KT 9999 FEW030
Forecast period: 0000 to 0600 UTC 22 April 2018
Forecast type: BECOMING: Conditions expected to become as follows by 0300 UTC 22 April 2018
Winds: from the WNW (300 degrees) at 9 MPH (8 knots; 4.2 m/s)
Visibility: 6 or more miles (10+ km)
Clouds: few clouds at 3000 feet AGL
Weather: no significant weather forecast for this period